Portada
METAR-TAF:

METAR-TAF

Aeroports :

Cairns, Austràlia

latitud: 16-53S, longitud: 145-45E, altitud: 3 m

Observació

L'informe es va fer fa 36 minuts, a les 22:30 UTC
Vent 8 kt del Sud/Sud-Est
Temperatura 26°C
Humitat 79%
Pressió 1012 hPa
Visibilitat 10 km o més

METAR: YBCS 012230Z AUTO 15008KT 9999 // NCD 26/22 Q1012 RF00.0/003.6 NOSIG

Hora: 09:06 (23:06 UTC)

Pronòstic

L'informe es va fer fa 5 hores i 51 minuts, a les 17:15 UTC
Pronòstic vàlid del 01 a les 17 UTC al 02 a les 18 UTC
Vent 8 kt del Sud
Visibilitat 10 km o més
Núvols disperses a una alçada de 2500 ft
xàfecs de pluja
A partir de les 02 a les 0000 UTC
Vent 12 kt del Est/Sud-Est
Visibilitat 10 km o més
Escasses núvols a una alçada de 3500 ft
A partir de les 02 a les 0800 UTC
Vent 8 kt del Sud
Visibilitat 10 km o més
Escasses núvols a una alçada de 2500 ft

TAF: YBCS 011715Z 0117/0218 17008KT 9999 -SHRA SCT025 FM020000 12012KT 9999 FEW035 FM020800 17008KT 9999 FEW025

Observacions i pronòstics meteorològics de més de 4000 aeroports (METAR i TAF).

Les estacions disponibles són els punts grocs i vermells al mapa.

Posi el ratolí al punt desitjat per veure el nom de l'estació.

Feu clic per veure les observacions i els pronòstics meteorològics.

Per canviar el mapa: feu clic els botons verds amb una creu de color negre per apropar; al botó verd amb un guió per allunyar la imatge; o en les fletxes verdes per a mapes adjacents.


METAR-TAF: